createdAt,value
2018-03-28T00:01:53.600Z,62.01
2018-03-28T00:04:21.267Z,62.75
2018-03-28T00:06:48.846Z,62.56
2018-03-28T00:09:16.725Z,63.09
2018-03-28T00:11:44.316Z,63.96
2018-03-28T00:14:11.913Z,63.84
2018-03-28T00:16:39.590Z,64.21
2018-03-28T00:19:07.185Z,64.26
2018-03-28T00:21:34.793Z,65.15
2018-03-28T00:24:02.493Z,65.84
2018-03-28T00:26:30.108Z,66.23
2018-03-28T00:28:57.707Z,66.54
2018-03-28T00:31:25.323Z,66.84
2018-03-28T00:33:52.926Z,67.48
2018-03-28T00:36:20.804Z,68.00
2018-03-28T00:38:48.430Z,68.96
2018-03-28T00:41:16.027Z,69.60
2018-03-28T00:43:43.641Z,70.71
2018-03-28T00:46:11.251Z,71.19
2018-03-28T00:51:24.268Z,71.64
2018-03-28T00:53:52.163Z,73.01
2018-03-28T00:56:19.799Z,73.38
2018-03-28T00:58:47.391Z,73.17
2018-03-28T01:01:15.008Z,73.10
2018-03-28T01:03:42.592Z,73.27
2018-03-28T01:06:10.308Z,73.84
2018-03-28T01:08:37.900Z,73.73
2018-03-28T01:11:05.499Z,74.62
2018-03-28T01:13:33.135Z,74.47
2018-03-28T01:16:00.743Z,74.32
2018-03-28T01:18:28.366Z,74.31
2018-03-28T01:20:55.975Z,75.03
2018-03-28T01:23:24.008Z,74.64
2018-03-28T01:25:51.612Z,75.03
2018-03-28T01:28:19.230Z,75.26
2018-03-28T01:30:46.864Z,75.61
2018-03-28T01:33:14.478Z,76.04
2018-03-28T01:35:42.087Z,75.80
2018-03-28T01:38:09.685Z,75.98
2018-03-28T01:40:37.689Z,76.64
2018-03-28T01:43:05.280Z,76.46
2018-03-28T01:45:32.880Z,76.42
2018-03-28T01:48:00.552Z,76.71
2018-03-28T01:50:28.151Z,76.81
2018-03-28T01:52:55.768Z,77.11
2018-03-28T01:55:23.366Z,77.00
2018-03-28T01:57:51.009Z,77.45
2018-03-28T02:00:18.620Z,78.83
2018-03-28T02:02:46.213Z,79.52
2018-03-28T02:05:13.848Z,79.14
2018-03-28T02:07:41.435Z,79.02
2018-03-28T02:10:09.053Z,79.80
2018-03-28T02:12:36.655Z,79.52
2018-03-28T02:15:04.488Z,79.67
2018-03-28T02:17:32.091Z,79.83
2018-03-28T02:19:59.685Z,79.38
2018-03-28T02:22:27.308Z,79.67
2018-03-28T02:24:54.896Z,79.65
2018-03-28T02:27:22.516Z,80.08
2018-03-28T02:29:50.117Z,80.62
2018-03-28T02:32:17.734Z,80.91
2018-03-28T02:34:45.392Z,80.86
2018-03-28T02:37:13.148Z,80.63
2018-03-28T02:39:40.755Z,80.90
2018-03-28T02:42:08.349Z,80.63
2018-03-28T02:44:35.990Z,80.73
2018-03-28T02:47:03.578Z,80.62
2018-03-28T02:49:31.201Z,80.23
2018-03-28T02:51:58.796Z,79.79
2018-03-28T02:54:26.656Z,79.54
2018-03-28T02:56:54.214Z,79.90
2018-03-28T02:59:21.807Z,79.92
2018-03-28T03:01:49.434Z,79.94
2018-03-28T03:04:17.060Z,80.39
2018-03-28T03:06:44.679Z,80.31
2018-03-28T03:09:12.284Z,80.32
2018-03-28T03:11:40.216Z,80.67
2018-03-28T03:14:07.806Z,81.07
2018-03-28T03:16:35.401Z,81.20
2018-03-28T03:19:03.021Z,81.59
2018-03-28T03:21:30.616Z,81.13
2018-03-28T03:23:58.262Z,80.95
2018-03-28T03:26:25.852Z,80.98
2018-03-28T03:28:53.495Z,81.13
2018-03-28T03:31:21.097Z,81.59
2018-03-28T03:33:48.699Z,80.87
2018-03-28T03:36:16.329Z,81.35
2018-03-28T03:38:43.929Z,81.16
2018-03-28T03:41:11.548Z,81.11
2018-03-28T03:43:39.142Z,81.07
2018-03-28T03:46:07.252Z,81.02
2018-03-28T03:48:34.846Z,81.72
2018-03-28T03:51:02.446Z,81.99
2018-03-28T03:53:30.111Z,82.08
2018-03-28T03:55:57.706Z,81.90
2018-03-28T03:58:25.332Z,81.63
2018-03-28T04:00:52.930Z,81.67
2018-03-28T04:03:20.818Z,81.56
2018-03-28T04:05:48.409Z,81.42
2018-03-28T04:08:16.008Z,82.26
2018-03-28T04:10:43.714Z,81.88
2018-03-28T04:13:11.423Z,82.35
2018-03-28T04:15:39.033Z,82.28
2018-03-28T04:18:06.632Z,81.91
2018-03-28T04:20:34.377Z,82.31
2018-03-28T04:23:01.967Z,82.07
2018-03-28T04:25:29.567Z,82.06
2018-03-28T04:27:57.399Z,82.07
2018-03-28T04:30:25.000Z,82.26
2018-03-28T04:32:52.625Z,82.16
2018-03-28T04:35:20.217Z,82.54
2018-03-28T04:37:48.095Z,82.56
2018-03-28T04:40:17.029Z,82.91
2018-03-28T04:42:44.620Z,82.46
2018-03-28T04:45:12.252Z,81.99
2018-03-28T04:47:39.857Z,82.46
2018-03-28T04:50:07.486Z,82.76
2018-03-28T04:52:35.084Z,82.82
2018-03-28T04:55:03.066Z,82.88
2018-03-28T04:57:30.662Z,83.16
2018-03-28T04:59:58.276Z,82.93
2018-03-28T05:02:25.888Z,82.83
2018-03-28T05:04:53.510Z,82.50
2018-03-28T05:07:21.116Z,82.22
2018-03-28T05:09:48.716Z,82.57
2018-03-28T05:12:16.308Z,82.67
2018-03-28T05:14:43.943Z,82.96
2018-03-28T05:17:11.545Z,82.69
2018-03-28T05:19:39.186Z,83.22
2018-03-28T05:22:06.796Z,83.73
2018-03-28T05:24:34.397Z,83.40
2018-03-28T05:27:02.039Z,83.45
2018-03-28T05:29:29.649Z,83.56
2018-03-28T05:31:57.271Z,83.06
2018-03-28T05:34:24.868Z,82.97
2018-03-28T05:36:52.511Z,82.68
2018-03-28T05:39:21.036Z,82.68
2018-03-28T05:41:48.636Z,83.00
2018-03-28T05:44:16.263Z,82.76
2018-03-28T05:46:43.860Z,82.55
2018-03-28T05:49:11.638Z,83.48
2018-03-28T05:51:39.232Z,83.56
2018-03-28T05:54:07.057Z,83.78
2018-03-28T05:56:34.667Z,83.28
2018-03-28T05:59:02.321Z,83.32
2018-03-28T06:01:29.940Z,83.33
2018-03-28T06:03:57.567Z,83.35
2018-03-28T06:06:25.188Z,83.81
2018-03-28T06:08:52.788Z,83.36
2018-03-28T06:11:20.439Z,84.00
2018-03-28T06:13:48.029Z,83.95
2018-03-28T06:16:15.642Z,84.42
2018-03-28T06:18:43.264Z,84.52
2018-03-28T06:21:10.861Z,84.42
2018-03-28T06:23:38.483Z,84.71
2018-03-28T06:26:06.355Z,84.72
2018-03-28T06:28:33.997Z,84.30
2018-03-28T06:31:01.599Z,84.12
2018-03-28T06:33:29.191Z,84.82
2018-03-28T06:35:56.884Z,84.47
2018-03-28T06:38:24.477Z,84.33
2018-03-28T06:40:52.096Z,84.21
2018-03-28T06:43:19.708Z,84.08
2018-03-28T06:45:47.368Z,84.24
2018-03-28T06:48:14.957Z,84.46
2018-03-28T06:50:42.547Z,84.83
2018-03-28T06:53:10.157Z,84.90
2018-03-28T06:55:37.767Z,84.55
2018-03-28T06:58:05.379Z,84.41
2018-03-28T07:00:32.980Z,84.47
2018-03-28T07:03:00.891Z,84.97
2018-03-28T07:05:28.487Z,84.66
2018-03-28T07:07:56.075Z,84.26
2018-03-28T07:10:23.690Z,83.98
2018-03-28T07:12:51.315Z,83.67
2018-03-28T07:15:18.932Z,83.61
2018-03-28T07:17:46.523Z,83.35
2018-03-28T07:20:14.440Z,83.74
2018-03-28T07:22:42.048Z,83.00
2018-03-28T07:25:09.642Z,83.56
2018-03-28T07:27:37.260Z,83.62
2018-03-28T07:30:04.871Z,83.89
2018-03-28T07:32:32.538Z,83.71
2018-03-28T07:35:00.136Z,83.53
2018-03-28T07:37:27.720Z,83.60
2018-03-28T07:39:55.327Z,83.72
2018-03-28T07:42:22.923Z,83.63
2018-03-28T07:44:50.560Z,83.88
2018-03-28T07:47:18.399Z,85.48
2018-03-28T07:49:47.404Z,85.37
2018-03-28T07:52:15.171Z,85.36
2018-03-28T07:54:42.830Z,85.04
2018-03-28T07:57:10.855Z,84.81
2018-03-28T07:59:38.446Z,84.29
2018-03-28T08:02:06.063Z,84.45
2018-03-28T08:04:33.659Z,84.01
2018-03-28T08:07:01.256Z,84.14
2018-03-28T08:09:29.202Z,83.30
2018-03-28T08:11:57.203Z,83.71
2018-03-28T08:14:25.166Z,83.79
2018-03-28T08:16:52.941Z,83.02
2018-03-28T08:19:20.781Z,82.99
2018-03-28T08:21:57.813Z,83.42
2018-03-28T08:24:26.188Z,84.66
2018-03-28T08:26:53.806Z,83.88
2018-03-28T08:29:21.575Z,84.20
2018-03-28T08:31:49.293Z,84.12
2018-03-28T08:34:16.909Z,84.67
2018-03-28T08:36:44.547Z,84.25
2018-03-28T08:39:12.140Z,83.47
2018-03-28T08:41:40.323Z,82.91
2018-03-28T08:44:08.176Z,83.18
2018-03-28T08:46:35.873Z,82.11
2018-03-28T08:49:03.480Z,81.80
2018-03-28T08:51:31.125Z,81.30
2018-03-28T08:53:58.889Z,81.41
2018-03-28T08:56:26.497Z,80.70
2018-03-28T08:58:54.523Z,80.04
2018-03-28T09:01:22.111Z,79.33
2018-03-28T09:03:49.699Z,79.73
2018-03-28T09:06:17.312Z,77.93
2018-03-28T09:08:44.893Z,77.84
2018-03-28T09:11:12.781Z,77.52
2018-03-28T09:13:40.557Z,77.27
2018-03-28T09:16:08.551Z,76.72
2018-03-28T09:18:36.153Z,77.35
2018-03-28T09:21:03.740Z,75.94
2018-03-28T09:23:31.380Z,76.40
2018-03-28T09:25:58.984Z,76.43
2018-03-28T09:28:26.658Z,74.07
2018-03-28T09:30:54.339Z,75.48
2018-03-28T09:33:22.594Z,73.90
2018-03-28T09:35:50.201Z,73.99
2018-03-28T09:38:17.794Z,74.25
2018-03-28T09:40:45.421Z,72.73
2018-03-28T09:43:13.318Z,74.06
2018-03-28T09:45:41.176Z,72.21
2018-03-28T09:48:08.764Z,71.77
2018-03-28T09:50:36.413Z,70.86
2018-03-28T09:53:04.005Z,69.80
2018-03-28T09:55:31.811Z,69.32
2018-03-28T09:57:59.421Z,69.90
2018-03-28T10:00:27.070Z,69.15
2018-03-28T10:03:00.248Z,69.38
2018-03-28T10:05:33.404Z,69.14
2018-03-28T10:08:01.098Z,68.53
2018-03-28T10:10:28.687Z,67.33
2018-03-28T10:12:56.608Z,68.55
2018-03-28T10:15:24.216Z,68.20
2018-03-28T10:17:51.807Z,68.25
2018-03-28T10:20:19.448Z,67.41
2018-03-28T10:22:47.041Z,67.46
2018-03-28T10:25:14.667Z,65.75
2018-03-28T10:27:42.267Z,66.64
2018-03-28T10:30:09.907Z,65.83
2018-03-28T10:32:37.507Z,66.55
2018-03-28T10:35:05.204Z,66.05
2018-03-28T10:37:32.743Z,65.60
2018-03-28T10:40:00.342Z,65.06
2018-03-28T10:42:27.983Z,64.77
2018-03-28T10:44:55.572Z,64.64
2018-03-28T10:47:23.302Z,64.37
2018-03-28T10:49:50.899Z,62.91
2018-03-28T10:52:18.491Z,62.63
2018-03-28T10:54:46.103Z,62.65
2018-03-28T10:57:13.692Z,60.10
2018-03-28T10:59:41.301Z,60.27
2018-03-28T11:02:08.883Z,60.33
2018-03-28T11:04:36.702Z,58.76
2018-03-28T11:07:04.288Z,58.80
2018-03-28T11:09:31.884Z,59.06
2018-03-28T11:11:59.495Z,58.98
2018-03-28T11:14:27.149Z,59.88
2018-03-28T11:16:54.756Z,58.62
2018-03-28T11:19:22.347Z,58.08
2018-03-28T11:21:49.976Z,57.43
2018-03-28T11:24:17.576Z,57.67
2018-03-28T11:26:45.181Z,57.10
2018-03-28T11:29:12.796Z,54.94
2018-03-28T11:31:40.480Z,53.69
2018-03-28T11:34:08.092Z,54.39
2018-03-28T11:36:35.700Z,54.53
2018-03-28T11:39:03.877Z,53.96
2018-03-28T11:41:31.482Z,55.04
2018-03-28T11:43:59.078Z,54.74
2018-03-28T11:46:26.693Z,55.37
2018-03-28T11:48:54.294Z,55.21
2018-03-28T11:51:21.899Z,54.83
2018-03-28T11:53:49.543Z,53.76
2018-03-28T11:56:17.201Z,54.63
2018-03-28T11:58:45.110Z,55.28
2018-03-28T12:01:12.762Z,53.84
2018-03-28T12:03:40.371Z,55.04
2018-03-28T12:06:10.930Z,55.30
2018-03-28T12:08:38.592Z,55.14
2018-03-28T12:11:07.341Z,55.75
2018-03-28T12:13:35.027Z,55.15
2018-03-28T12:16:02.716Z,54.42
2018-03-28T12:18:30.320Z,54.84
2018-03-28T12:20:58.427Z,55.68
2018-03-28T12:23:27.748Z,54.85
2018-03-28T12:25:55.634Z,56.13
2018-03-28T12:28:27.718Z,55.97
2018-03-28T12:30:55.427Z,55.88
2018-03-28T12:33:23.618Z,56.75
2018-03-28T12:35:51.370Z,57.14
2018-03-28T12:38:18.995Z,56.63
2018-03-28T12:40:46.620Z,56.93
2018-03-28T12:43:14.217Z,56.36
2018-03-28T12:45:41.888Z,55.64
2018-03-28T12:48:09.435Z,54.74
2018-03-28T12:50:37.449Z,55.46
2018-03-28T12:53:05.100Z,54.71
2018-03-28T12:55:33.844Z,54.34
2018-03-28T12:58:01.748Z,55.00
2018-03-28T13:00:29.507Z,55.18
2018-03-28T13:02:57.164Z,54.64
2018-03-28T13:05:24.780Z,55.40
2018-03-28T13:07:52.892Z,54.79
2018-03-28T13:10:20.448Z,54.74
2018-03-28T13:12:49.052Z,54.78
2018-03-28T13:15:16.677Z,54.76
2018-03-28T13:17:44.407Z,54.42
2018-03-28T13:20:12.028Z,54.37
2018-03-28T13:22:39.620Z,54.26
2018-03-28T13:25:07.484Z,53.93
2018-03-28T13:27:35.481Z,53.86
2018-03-28T13:30:03.269Z,53.64
2018-03-28T13:32:30.904Z,53.73
2018-03-28T13:34:58.530Z,53.48
2018-03-28T13:37:26.164Z,54.11
2018-03-28T13:39:53.787Z,53.53
2018-03-28T13:42:21.436Z,53.98
2018-03-28T13:44:51.914Z,52.35
2018-03-28T13:47:19.633Z,52.61
2018-03-28T13:49:47.288Z,50.50
2018-03-28T13:52:14.913Z,49.76
2018-03-28T13:54:42.567Z,49.01
2018-03-28T13:57:14.405Z,48.15
2018-03-28T13:59:43.466Z,47.32
2018-03-28T14:02:11.338Z,48.48
2018-03-28T14:04:39.064Z,48.94
2018-03-28T14:07:06.685Z,48.97
2018-03-28T14:09:34.268Z,49.76
2018-03-28T14:12:01.938Z,50.38
2018-03-28T14:14:29.535Z,50.61
2018-03-28T14:16:57.404Z,50.83
2018-03-28T14:19:25.015Z,51.38
2018-03-28T14:21:52.670Z,51.96
2018-03-28T14:24:20.261Z,49.74
2018-03-28T14:26:47.858Z,53.22
2018-03-28T14:29:15.468Z,51.38
2018-03-28T14:31:43.069Z,51.20
2018-03-28T14:34:10.940Z,51.69
2018-03-28T14:36:38.666Z,54.67
2018-03-28T14:39:06.268Z,51.62
2018-03-28T14:41:35.577Z,52.03
2018-03-28T14:44:03.172Z,51.83
2018-03-28T14:46:31.030Z,53.20
2018-03-28T14:48:58.802Z,53.25
2018-03-28T14:51:26.431Z,54.68
2018-03-28T14:53:54.422Z,52.88
2018-03-28T14:56:22.272Z,53.32
2018-03-28T14:58:49.861Z,52.96
2018-03-28T15:01:17.451Z,53.42
2018-03-28T15:03:45.067Z,54.49
2018-03-28T15:06:12.652Z,54.88
2018-03-28T15:08:40.268Z,55.14
2018-03-28T15:11:07.873Z,54.79
2018-03-28T15:13:35.799Z,55.19
2018-03-28T15:16:03.706Z,55.92
2018-03-28T15:18:31.720Z,55.33
2018-03-28T15:21:00.132Z,55.31
2018-03-28T15:23:27.728Z,55.42
2018-03-28T15:25:55.340Z,56.26
2018-03-28T15:28:22.927Z,56.57
2018-03-28T15:30:50.545Z,57.35
2018-03-28T15:33:18.156Z,58.48
2018-03-28T15:35:45.749Z,59.14
2018-03-28T15:38:13.459Z,59.58
2018-03-28T15:40:41.046Z,59.95
2018-03-28T15:43:08.664Z,60.19
2018-03-28T15:45:36.259Z,61.46
2018-03-28T15:48:03.906Z,62.99
2018-03-28T15:50:31.946Z,63.41
2018-03-28T15:52:59.510Z,64.53
2018-03-28T15:55:27.134Z,65.73
2018-03-28T15:57:54.741Z,65.40
2018-03-28T16:00:22.357Z,65.81
2018-03-28T16:02:49.944Z,66.11
2018-03-28T16:05:17.654Z,67.64
2018-03-28T16:07:45.248Z,68.13
2018-03-28T16:10:12.843Z,68.91
2018-03-28T16:12:40.539Z,67.89
2018-03-28T16:15:08.131Z,68.60
2018-03-28T16:17:35.760Z,70.44
2018-03-28T16:20:03.351Z,70.78
2018-03-28T16:22:32.811Z,71.71
2018-03-28T16:25:00.889Z,71.28
2018-03-28T16:27:28.493Z,72.78
2018-03-28T16:29:56.279Z,72.77
2018-03-28T16:32:24.125Z,73.78
2018-03-28T16:34:51.745Z,74.57
2018-03-28T16:37:19.340Z,74.67
2018-03-28T16:39:46.988Z,74.33
2018-03-28T16:42:14.588Z,75.83
2018-03-28T16:44:42.192Z,76.10
2018-03-28T16:47:09.810Z,77.21
2018-03-28T16:49:37.392Z,77.60
2018-03-28T16:52:05.001Z,77.83
2018-03-28T16:54:32.693Z,78.28
2018-03-28T16:57:00.403Z,78.75
2018-03-28T16:59:29.553Z,78.40
2018-03-28T17:01:57.459Z,79.11
2018-03-28T17:04:25.080Z,79.79
2018-03-28T17:06:52.678Z,80.65
2018-03-28T17:09:20.287Z,80.41
2018-03-28T17:11:48.092Z,79.71
2018-03-28T17:14:15.797Z,79.69
2018-03-28T17:16:43.385Z,81.18
2018-03-28T17:19:11.084Z,81.71
2018-03-28T17:21:38.673Z,81.17
2018-03-28T17:24:06.315Z,81.24
2018-03-28T17:26:33.907Z,81.63
2018-03-28T17:29:01.491Z,82.20
2018-03-28T17:31:29.103Z,82.59
2018-03-28T17:33:56.691Z,82.71
2018-03-28T17:36:24.325Z,82.94
2018-03-28T17:38:51.916Z,83.17
2018-03-28T17:41:19.563Z,82.97
2018-03-28T17:43:47.160Z,82.87
2018-03-28T17:46:14.761Z,83.05
2018-03-28T17:48:42.369Z,82.56
2018-03-28T17:51:09.969Z,82.70
2018-03-28T17:53:37.616Z,82.82
2018-03-28T17:56:05.199Z,83.08
2018-03-28T17:58:33.192Z,83.01
2018-03-28T18:01:00.777Z,82.92
2018-03-28T18:03:28.376Z,83.29
2018-03-28T18:05:55.992Z,83.29
2018-03-28T18:08:23.582Z,82.97
2018-03-28T18:10:51.199Z,83.52
2018-03-28T18:13:18.792Z,83.59
2018-03-28T18:15:46.838Z,83.33
2018-03-28T18:18:14.427Z,83.41
2018-03-28T18:20:42.028Z,83.62
2018-03-28T18:23:09.660Z,83.94
2018-03-28T18:25:37.256Z,84.67
2018-03-28T18:28:04.872Z,84.23
2018-03-28T18:30:32.498Z,83.64
2018-03-28T18:33:00.660Z,83.67
2018-03-28T18:35:28.239Z,83.88
2018-03-28T18:37:55.825Z,84.23
2018-03-28T18:40:23.476Z,84.14
2018-03-28T18:42:51.066Z,83.92
2018-03-28T18:45:18.692Z,83.61
2018-03-28T18:47:46.359Z,83.76
2018-03-28T18:50:13.953Z,83.93
2018-03-28T18:52:41.665Z,84.10
2018-03-28T18:55:09.254Z,83.86
2018-03-28T18:57:37.320Z,83.71
2018-03-28T19:00:05.287Z,83.63
2018-03-28T19:02:32.875Z,84.12
2018-03-28T19:05:00.575Z,84.43
2018-03-28T19:07:28.217Z,84.44
2018-03-28T19:09:55.913Z,84.06
2018-03-28T19:12:23.520Z,84.56
2018-03-28T19:14:51.389Z,83.76
2018-03-28T19:17:19.044Z,83.90
2018-03-28T19:19:46.681Z,84.28
2018-03-28T19:22:14.363Z,84.17
2018-03-28T19:24:41.999Z,84.43
2018-03-28T19:27:09.660Z,84.66
2018-03-28T19:29:37.353Z,84.42
2018-03-28T19:32:05.189Z,84.13
2018-03-28T19:34:32.872Z,84.37
2018-03-28T19:37:00.521Z,83.92
2018-03-28T19:39:28.253Z,84.00
2018-03-28T19:41:55.874Z,84.08
2018-03-28T19:44:23.485Z,84.09
2018-03-28T19:46:51.082Z,84.88
2018-03-28T19:49:18.927Z,85.58
2018-03-28T19:51:46.516Z,87.13
2018-03-28T19:54:14.104Z,87.38
2018-03-28T19:56:41.716Z,87.03
2018-03-28T19:59:09.309Z,87.23
2018-03-28T20:01:36.922Z,86.02
2018-03-28T20:04:04.513Z,85.98
2018-03-28T20:06:32.257Z,85.88
2018-03-28T20:08:59.850Z,85.16
2018-03-28T20:11:27.440Z,85.17
2018-03-28T20:13:55.185Z,85.17
2018-03-28T20:16:22.771Z,84.64
2018-03-28T20:18:50.384Z,83.62
2018-03-28T20:21:17.972Z,82.99
2018-03-28T20:23:45.797Z,82.58
2018-03-28T20:26:13.387Z,83.13
2018-03-28T20:28:40.981Z,83.28
2018-03-28T20:31:08.619Z,82.86
2018-03-28T20:33:36.196Z,83.39
2018-03-28T20:36:03.804Z,82.96
2018-03-28T20:38:31.393Z,83.08
2018-03-28T20:40:59.004Z,83.32
2018-03-28T20:43:26.588Z,83.32
2018-03-28T20:45:54.207Z,83.52
2018-03-28T20:48:21.802Z,83.08
2018-03-28T20:50:49.417Z,82.22
2018-03-28T20:53:17.011Z,83.25
2018-03-28T20:55:44.894Z,82.88
2018-03-28T20:58:12.497Z,82.67
2018-03-28T21:00:40.097Z,82.57
2018-03-28T21:03:07.712Z,82.63
2018-03-28T21:05:35.306Z,82.41
2018-03-28T21:08:02.922Z,82.66
2018-03-28T21:10:30.600Z,82.37
2018-03-28T21:12:58.564Z,82.53
2018-03-28T21:15:26.256Z,82.60
2018-03-28T21:17:53.854Z,82.53
2018-03-28T21:20:21.467Z,82.82
2018-03-28T21:22:49.080Z,82.25
2018-03-28T21:25:16.703Z,81.86
2018-03-28T21:27:44.288Z,82.02
2018-03-28T21:30:12.159Z,82.08
2018-03-28T21:32:39.749Z,82.36
2018-03-28T21:35:07.340Z,81.70
2018-03-28T21:37:34.972Z,81.66
2018-03-28T21:40:02.632Z,81.66
2018-03-28T21:42:30.248Z,82.11
2018-03-28T21:44:57.942Z,81.64
2018-03-28T21:47:26.005Z,81.89
2018-03-28T21:49:53.589Z,82.19
2018-03-28T21:52:21.178Z,81.85
2018-03-28T21:54:48.791Z,81.81
2018-03-28T21:57:16.385Z,82.16
2018-03-28T21:59:44.001Z,82.46
2018-03-28T22:02:11.581Z,82.83
2018-03-28T22:04:39.360Z,82.94
2018-03-28T22:07:06.949Z,82.65
2018-03-28T22:09:34.544Z,82.66
2018-03-28T22:12:02.172Z,83.11
2018-03-28T22:14:29.763Z,82.15
2018-03-28T22:16:57.379Z,82.50
2018-03-28T22:19:24.976Z,82.29
2018-03-28T22:21:52.975Z,82.09
2018-03-28T22:24:20.564Z,81.36
2018-03-28T22:26:48.161Z,81.36
2018-03-28T22:29:15.768Z,80.96
2018-03-28T22:31:43.354Z,80.93
2018-03-28T22:34:11.093Z,81.33
2018-03-28T22:36:38.747Z,81.70
2018-03-28T22:39:06.329Z,80.89
2018-03-28T22:41:33.948Z,80.33
2018-03-28T22:44:01.534Z,81.07
2018-03-28T22:46:29.135Z,81.21
2018-03-28T22:48:56.719Z,80.27
2018-03-28T22:51:24.377Z,80.72
2018-03-28T22:53:51.962Z,80.48
2018-03-28T22:56:19.549Z,80.66
2018-03-28T22:58:47.199Z,79.77
2018-03-28T23:01:14.795Z,80.77
2018-03-28T23:03:42.405Z,79.10
2018-03-28T23:06:09.991Z,79.03
2018-03-28T23:08:38.044Z,78.42
2018-03-28T23:11:05.639Z,78.63
2018-03-28T23:13:33.223Z,78.24
2018-03-28T23:16:00.829Z,78.61
2018-03-28T23:18:28.417Z,77.72
2018-03-28T23:20:56.043Z,78.25
2018-03-28T23:23:23.633Z,78.79
2018-03-28T23:25:51.272Z,78.26
2018-03-28T23:28:18.859Z,77.62
2018-03-28T23:30:46.463Z,77.68
2018-03-28T23:33:14.074Z,77.76
2018-03-28T23:35:41.670Z,77.19
2018-03-28T23:38:09.278Z,76.61
2018-03-28T23:40:36.899Z,76.94
2018-03-28T23:43:04.749Z,75.10
2018-03-28T23:45:32.331Z,76.22
2018-03-28T23:47:59.919Z,74.19
2018-03-28T23:50:27.524Z,74.68
2018-03-28T23:52:55.119Z,74.69
2018-03-28T23:55:22.724Z,73.56
2018-03-28T23:57:50.325Z,70.92
